sensor_id;sensor_type;location;lat;lon;timestamp;P1;durP1;ratioP1;P2;durP2;ratioP2
70433;SDS011;57876;47.792;12.960;2023-05-07T00:00:16;3.20;;;0.70;;
70433;SDS011;57876;47.792;12.960;2023-05-07T00:02:42;3.47;;;0.80;;
70433;SDS011;57876;47.792;12.960;2023-05-07T00:05:08;3.47;;;0.75;;
70433;SDS011;57876;47.792;12.960;2023-05-07T00:07:33;3.50;;;0.70;;
70433;SDS011;57876;47.792;12.960;2023-05-07T00:09:57;3.50;;;0.80;;
70433;SDS011;57876;47.792;12.960;2023-05-07T00:12:21;3.40;;;0.70;;
70433;SDS011;57876;47.792;12.960;2023-05-07T00:14:46;3.03;;;0.60;;
70433;SDS011;57876;47.792;12.960;2023-05-07T00:17:10;3.57;;;0.70;;
70433;SDS011;57876;47.792;12.960;2023-05-07T00:19:34;3.40;;;0.73;;
70433;SDS011;57876;47.792;12.960;2023-05-07T00:21:59;3.25;;;0.60;;
70433;SDS011;57876;47.792;12.960;2023-05-07T00:24:23;3.47;;;0.80;;
70433;SDS011;57876;47.792;12.960;2023-05-07T00:26:48;3.57;;;0.80;;
70433;SDS011;57876;47.792;12.960;2023-05-07T00:29:12;3.73;;;0.80;;
70433;SDS011;57876;47.792;12.960;2023-05-07T00:31:37;3.40;;;0.60;;
70433;SDS011;57876;47.792;12.960;2023-05-07T00:34:01;3.80;;;0.80;;
70433;SDS011;57876;47.792;12.960;2023-05-07T00:36:25;3.40;;;0.67;;
70433;SDS011;57876;47.792;12.960;2023-05-07T00:38:50;3.67;;;0.80;;
70433;SDS011;57876;47.792;12.960;2023-05-07T00:41:15;3.47;;;0.70;;
70433;SDS011;57876;47.792;12.960;2023-05-07T00:43:39;3.58;;;0.70;;
70433;SDS011;57876;47.792;12.960;2023-05-07T00:46:04;3.40;;;0.80;;
70433;SDS011;57876;47.792;12.960;2023-05-07T00:48:29;3.63;;;0.80;;
70433;SDS011;57876;47.792;12.960;2023-05-07T00:50:57;3.30;;;0.75;;
70433;SDS011;57876;47.792;12.960;2023-05-07T00:53:22;3.03;;;0.63;;
70433;SDS011;57876;47.792;12.960;2023-05-07T00:55:46;3.50;;;0.70;;
70433;SDS011;57876;47.792;12.960;2023-05-07T00:58:12;3.35;;;0.70;;
70433;SDS011;57876;47.792;12.960;2023-05-07T01:00:36;3.40;;;0.70;;
70433;SDS011;57876;47.792;12.960;2023-05-07T01:03:01;3.33;;;0.70;;
70433;SDS011;57876;47.792;12.960;2023-05-07T01:05:25;3.47;;;0.70;;
70433;SDS011;57876;47.792;12.960;2023-05-07T01:07:52;3.25;;;0.70;;
70433;SDS011;57876;47.792;12.960;2023-05-07T01:10:18;4.10;;;0.80;;
70433;SDS011;57876;47.792;12.960;2023-05-07T01:12:44;3.37;;;0.70;;
70433;SDS011;57876;47.792;12.960;2023-05-07T01:15:09;3.28;;;0.68;;
70433;SDS011;57876;47.792;12.960;2023-05-07T01:17:38;3.67;;;0.80;;
70433;SDS011;57876;47.792;12.960;2023-05-07T01:20:05;3.22;;;0.65;;
70433;SDS011;57876;47.792;12.960;2023-05-07T01:22:31;3.28;;;0.70;;
70433;SDS011;57876;47.792;12.960;2023-05-07T01:24:58;3.60;;;0.70;;
70433;SDS011;57876;47.792;12.960;2023-05-07T01:27:23;3.60;;;0.70;;
70433;SDS011;57876;47.792;12.960;2023-05-07T01:29:48;3.40;;;0.70;;
70433;SDS011;57876;47.792;12.960;2023-05-07T01:32:12;3.27;;;0.67;;
70433;SDS011;57876;47.792;12.960;2023-05-07T01:34:39;3.45;;;0.80;;
70433;SDS011;57876;47.792;12.960;2023-05-07T01:37:04;2.90;;;0.70;;
70433;SDS011;57876;47.792;12.960;2023-05-07T01:39:29;3.30;;;0.60;;
70433;SDS011;57876;47.792;12.960;2023-05-07T01:41:54;3.13;;;0.73;;
70433;SDS011;57876;47.792;12.960;2023-05-07T01:44:20;3.65;;;0.73;;
70433;SDS011;57876;47.792;12.960;2023-05-07T01:46:45;3.50;;;0.70;;
70433;SDS011;57876;47.792;12.960;2023-05-07T01:49:11;3.80;;;0.70;;
70433;SDS011;57876;47.792;12.960;2023-05-07T01:51:36;3.55;;;0.80;;
70433;SDS011;57876;47.792;12.960;2023-05-07T01:54:00;3.30;;;0.60;;
70433;SDS011;57876;47.792;12.960;2023-05-07T01:56:25;3.13;;;0.60;;
70433;SDS011;57876;47.792;12.960;2023-05-07T01:58:49;2.97;;;0.50;;
70433;SDS011;57876;47.792;12.960;2023-05-07T02:01:15;3.08;;;0.60;;
70433;SDS011;57876;47.792;12.960;2023-05-07T02:03:39;3.03;;;0.60;;
70433;SDS011;57876;47.792;12.960;2023-05-07T02:06:04;3.33;;;0.70;;
70433;SDS011;57876;47.792;12.960;2023-05-07T02:08:28;3.60;;;0.80;;
70433;SDS011;57876;47.792;12.960;2023-05-07T02:10:53;3.30;;;0.73;;
70433;SDS011;57876;47.792;12.960;2023-05-07T02:13:17;3.30;;;0.70;;
70433;SDS011;57876;47.792;12.960;2023-05-07T02:15:42;3.53;;;0.77;;
70433;SDS011;57876;47.792;12.960;2023-05-07T02:18:08;3.20;;;0.60;;
70433;SDS011;57876;47.792;12.960;2023-05-07T02:20:33;3.47;;;0.70;;
70433;SDS011;57876;47.792;12.960;2023-05-07T02:22:58;4.00;;;0.80;;
70433;SDS011;57876;47.792;12.960;2023-05-07T02:25:22;3.28;;;0.70;;
70433;SDS011;57876;47.792;12.960;2023-05-07T02:27:47;3.33;;;0.60;;
70433;SDS011;57876;47.792;12.960;2023-05-07T02:30:11;4.00;;;0.93;;
70433;SDS011;57876;47.792;12.960;2023-05-07T02:32:36;3.55;;;0.73;;
70433;SDS011;57876;47.792;12.960;2023-05-07T02:35:00;3.47;;;0.90;;
70433;SDS011;57876;47.792;12.960;2023-05-07T02:37:25;3.27;;;0.70;;
70433;SDS011;57876;47.792;12.960;2023-05-07T02:39:49;3.40;;;0.70;;
70433;SDS011;57876;47.792;12.960;2023-05-07T02:42:13;4.93;;;1.33;;
70433;SDS011;57876;47.792;12.960;2023-05-07T02:44:38;3.58;;;0.70;;
70433;SDS011;57876;47.792;12.960;2023-05-07T02:47:04;3.40;;;0.70;;
70433;SDS011;57876;47.792;12.960;2023-05-07T02:49:28;3.25;;;0.75;;
70433;SDS011;57876;47.792;12.960;2023-05-07T02:51:52;3.40;;;0.80;;
70433;SDS011;57876;47.792;12.960;2023-05-07T02:54:17;3.43;;;0.70;;
70433;SDS011;57876;47.792;12.960;2023-05-07T02:56:41;3.23;;;0.67;;
70433;SDS011;57876;47.792;12.960;2023-05-07T02:59:06;3.75;;;0.73;;
70433;SDS011;57876;47.792;12.960;2023-05-07T03:01:30;4.37;;;0.97;;
70433;SDS011;57876;47.792;12.960;2023-05-07T03:03:55;3.27;;;0.70;;
70433;SDS011;57876;47.792;12.960;2023-05-07T03:06:20;3.42;;;0.70;;
70433;SDS011;57876;47.792;12.960;2023-05-07T03:08:44;3.70;;;0.83;;
70433;SDS011;57876;47.792;12.960;2023-05-07T03:11:09;3.13;;;0.70;;
70433;SDS011;57876;47.792;12.960;2023-05-07T03:13:33;4.38;;;0.80;;
70433;SDS011;57876;47.792;12.960;2023-05-07T03:15:58;3.77;;;0.90;;
70433;SDS011;57876;47.792;12.960;2023-05-07T03:18:22;3.80;;;0.90;;
70433;SDS011;57876;47.792;12.960;2023-05-07T03:20:47;3.50;;;0.80;;
70433;SDS011;57876;47.792;12.960;2023-05-07T03:23:12;3.22;;;0.80;;
70433;SDS011;57876;47.792;12.960;2023-05-07T03:25:37;3.37;;;0.70;;
70433;SDS011;57876;47.792;12.960;2023-05-07T03:28:01;3.23;;;0.80;;
70433;SDS011;57876;47.792;12.960;2023-05-07T03:30:25;3.70;;;0.70;;
70433;SDS011;57876;47.792;12.960;2023-05-07T03:32:50;3.80;;;0.80;;
70433;SDS011;57876;47.792;12.960;2023-05-07T03:35:14;3.27;;;0.70;;
70433;SDS011;57876;47.792;12.960;2023-05-07T03:37:38;3.90;;;0.87;;
70433;SDS011;57876;47.792;12.960;2023-05-07T03:40:03;3.25;;;0.73;;
70433;SDS011;57876;47.792;12.960;2023-05-07T03:42:29;3.88;;;0.80;;
70433;SDS011;57876;47.792;12.960;2023-05-07T03:44:53;3.63;;;0.70;;
70433;SDS011;57876;47.792;12.960;2023-05-07T03:47:18;3.40;;;0.80;;
70433;SDS011;57876;47.792;12.960;2023-05-07T03:49:42;3.90;;;0.93;;
70433;SDS011;57876;47.792;12.960;2023-05-07T03:52:06;3.88;;;0.88;;
70433;SDS011;57876;47.792;12.960;2023-05-07T03:54:31;3.37;;;0.80;;
70433;SDS011;57876;47.792;12.960;2023-05-07T03:56:56;3.53;;;0.70;;
70433;SDS011;57876;47.792;12.960;2023-05-07T03:59:20;3.83;;;0.80;;
70433;SDS011;57876;47.792;12.960;2023-05-07T04:01:44;3.55;;;0.60;;
70433;SDS011;57876;47.792;12.960;2023-05-07T04:04:09;3.20;;;0.70;;
70433;SDS011;57876;47.792;12.960;2023-05-07T04:06:33;3.43;;;0.80;;
70433;SDS011;57876;47.792;12.960;2023-05-07T04:08:58;3.53;;;0.70;;
70433;SDS011;57876;47.792;12.960;2023-05-07T04:11:22;3.80;;;0.80;;
70433;SDS011;57876;47.792;12.960;2023-05-07T04:13:47;3.17;;;0.60;;
70433;SDS011;57876;47.792;12.960;2023-05-07T04:16:11;3.47;;;0.70;;
70433;SDS011;57876;47.792;12.960;2023-05-07T04:18:35;3.90;;;0.90;;
70433;SDS011;57876;47.792;12.960;2023-05-07T04:21:00;3.60;;;0.70;;
70433;SDS011;57876;47.792;12.960;2023-05-07T04:23:24;3.60;;;0.70;;
70433;SDS011;57876;47.792;12.960;2023-05-07T04:25:49;3.60;;;0.77;;
70433;SDS011;57876;47.792;12.960;2023-05-07T04:28:14;3.50;;;0.70;;
70433;SDS011;57876;47.792;12.960;2023-05-07T04:30:39;3.70;;;0.80;;
70433;SDS011;57876;47.792;12.960;2023-05-07T04:33:03;3.92;;;0.77;;
70433;SDS011;57876;47.792;12.960;2023-05-07T04:35:28;4.00;;;0.90;;
70433;SDS011;57876;47.792;12.960;2023-05-07T04:37:52;3.43;;;0.70;;
70433;SDS011;57876;47.792;12.960;2023-05-07T04:40:17;3.80;;;0.70;;
70433;SDS011;57876;47.792;12.960;2023-05-07T04:42:41;3.50;;;0.70;;
70433;SDS011;57876;47.792;12.960;2023-05-07T04:45:05;3.37;;;0.80;;
70433;SDS011;57876;47.792;12.960;2023-05-07T04:47:30;3.50;;;0.70;;
70433;SDS011;57876;47.792;12.960;2023-05-07T04:49:54;3.60;;;0.80;;
70433;SDS011;57876;47.792;12.960;2023-05-07T04:52:19;3.50;;;0.70;;
70433;SDS011;57876;47.792;12.960;2023-05-07T04:54:44;3.80;;;0.90;;
70433;SDS011;57876;47.792;12.960;2023-05-07T04:57:08;3.70;;;0.90;;
70433;SDS011;57876;47.792;12.960;2023-05-07T04:59:33;3.23;;;0.90;;
70433;SDS011;57876;47.792;12.960;2023-05-07T05:01:57;3.07;;;0.60;;
70433;SDS011;57876;47.792;12.960;2023-05-07T05:04:22;3.63;;;0.80;;
70433;SDS011;57876;47.792;12.960;2023-05-07T05:06:46;3.50;;;0.80;;
70433;SDS011;57876;47.792;12.960;2023-05-07T05:09:10;3.40;;;0.70;;
70433;SDS011;57876;47.792;12.960;2023-05-07T05:11:35;3.33;;;0.53;;
70433;SDS011;57876;47.792;12.960;2023-05-07T05:13:59;3.17;;;0.70;;
70433;SDS011;57876;47.792;12.960;2023-05-07T05:16:24;2.97;;;0.68;;
70433;SDS011;57876;47.792;12.960;2023-05-07T05:18:49;2.78;;;0.60;;
70433;SDS011;57876;47.792;12.960;2023-05-07T05:21:14;4.00;;;0.80;;
70433;SDS011;57876;47.792;12.960;2023-05-07T05:23:38;3.78;;;0.80;;
70433;SDS011;57876;47.792;12.960;2023-05-07T05:26:03;3.40;;;0.80;;
70433;SDS011;57876;47.792;12.960;2023-05-07T05:28:27;3.87;;;0.80;;
70433;SDS011;57876;47.792;12.960;2023-05-07T05:30:52;3.50;;;0.77;;
70433;SDS011;57876;47.792;12.960;2023-05-07T05:33:16;3.70;;;0.70;;
70433;SDS011;57876;47.792;12.960;2023-05-07T05:35:41;3.47;;;0.70;;
70433;SDS011;57876;47.792;12.960;2023-05-07T05:38:06;3.45;;;0.70;;
70433;SDS011;57876;47.792;12.960;2023-05-07T05:40:30;3.10;;;0.70;;
70433;SDS011;57876;47.792;12.960;2023-05-07T05:42:56;3.60;;;0.70;;
70433;SDS011;57876;47.792;12.960;2023-05-07T05:45:20;3.23;;;0.73;;
70433;SDS011;57876;47.792;12.960;2023-05-07T05:47:45;3.10;;;0.73;;
70433;SDS011;57876;47.792;12.960;2023-05-07T05:50:09;3.03;;;0.63;;
70433;SDS011;57876;47.792;12.960;2023-05-07T05:52:33;3.47;;;0.70;;
70433;SDS011;57876;47.792;12.960;2023-05-07T05:54:58;2.77;;;0.50;;
70433;SDS011;57876;47.792;12.960;2023-05-07T05:57:22;3.80;;;0.80;;
70433;SDS011;57876;47.792;12.960;2023-05-07T05:59:46;3.80;;;0.70;;
70433;SDS011;57876;47.792;12.960;2023-05-07T06:02:11;3.58;;;0.80;;
70433;SDS011;57876;47.792;12.960;2023-05-07T06:04:35;3.50;;;0.80;;
70433;SDS011;57876;47.792;12.960;2023-05-07T06:07:00;3.47;;;0.70;;
70433;SDS011;57876;47.792;12.960;2023-05-07T06:09:24;3.43;;;0.80;;
70433;SDS011;57876;47.792;12.960;2023-05-07T06:11:48;3.70;;;0.80;;
70433;SDS011;57876;47.792;12.960;2023-05-07T06:14:13;3.47;;;0.80;;
70433;SDS011;57876;47.792;12.960;2023-05-07T06:16:38;3.30;;;0.70;;
70433;SDS011;57876;47.792;12.960;2023-05-07T06:19:02;3.33;;;0.80;;
70433;SDS011;57876;47.792;12.960;2023-05-07T06:21:26;3.40;;;0.70;;
70433;SDS011;57876;47.792;12.960;2023-05-07T06:23:51;3.17;;;0.70;;
70433;SDS011;57876;47.792;12.960;2023-05-07T06:26:16;3.58;;;0.77;;
70433;SDS011;57876;47.792;12.960;2023-05-07T06:28:40;2.93;;;0.60;;
70433;SDS011;57876;47.792;12.960;2023-05-07T06:31:18;3.30;;;0.53;;
70433;SDS011;57876;47.792;12.960;2023-05-07T06:33:46;3.45;;;0.60;;
70433;SDS011;57876;47.792;12.960;2023-05-07T06:36:11;3.40;;;0.83;;
70433;SDS011;57876;47.792;12.960;2023-05-07T06:38:35;3.70;;;0.80;;
70433;SDS011;57876;47.792;12.960;2023-05-07T06:41:00;3.40;;;0.70;;
70433;SDS011;57876;47.792;12.960;2023-05-07T06:43:24;3.57;;;0.80;;
70433;SDS011;57876;47.792;12.960;2023-05-07T06:45:48;2.87;;;0.57;;
70433;SDS011;57876;47.792;12.960;2023-05-07T06:48:13;3.10;;;0.70;;
70433;SDS011;57876;47.792;12.960;2023-05-07T06:50:37;3.40;;;0.70;;
70433;SDS011;57876;47.792;12.960;2023-05-07T06:53:02;3.37;;;0.73;;
70433;SDS011;57876;47.792;12.960;2023-05-07T06:55:27;3.50;;;0.80;;
70433;SDS011;57876;47.792;12.960;2023-05-07T06:57:51;3.27;;;0.70;;
70433;SDS011;57876;47.792;12.960;2023-05-07T07:00:16;3.80;;;0.90;;
70433;SDS011;57876;47.792;12.960;2023-05-07T07:02:40;3.25;;;0.75;;
70433;SDS011;57876;47.792;12.960;2023-05-07T07:05:05;3.13;;;0.73;;
70433;SDS011;57876;47.792;12.960;2023-05-07T07:07:30;4.00;;;0.80;;
70433;SDS011;57876;47.792;12.960;2023-05-07T07:09:54;3.90;;;0.90;;
70433;SDS011;57876;47.792;12.960;2023-05-07T07:12:19;3.17;;;0.70;;
70433;SDS011;57876;47.792;12.960;2023-05-07T07:14:43;3.60;;;0.70;;
70433;SDS011;57876;47.792;12.960;2023-05-07T07:17:08;3.77;;;0.70;;
70433;SDS011;57876;47.792;12.960;2023-05-07T07:19:32;3.47;;;0.70;;
70433;SDS011;57876;47.792;12.960;2023-05-07T07:21:56;3.43;;;0.70;;
70433;SDS011;57876;47.792;12.960;2023-05-07T07:24:21;3.28;;;0.80;;
70433;SDS011;57876;47.792;12.960;2023-05-07T07:26:45;3.27;;;0.70;;
70433;SDS011;57876;47.792;12.960;2023-05-07T07:29:10;3.70;;;0.80;;
70433;SDS011;57876;47.792;12.960;2023-05-07T07:31:34;3.63;;;0.80;;
70433;SDS011;57876;47.792;12.960;2023-05-07T07:33:58;3.47;;;0.80;;
70433;SDS011;57876;47.792;12.960;2023-05-07T07:36:23;4.87;;;0.70;;
70433;SDS011;57876;47.792;12.960;2023-05-07T07:38:47;3.83;;;0.70;;
70433;SDS011;57876;47.792;12.960;2023-05-07T07:41:11;4.63;;;0.80;;
70433;SDS011;57876;47.792;12.960;2023-05-07T07:43:36;3.53;;;0.80;;
70433;SDS011;57876;47.792;12.960;2023-05-07T07:46:00;4.07;;;0.90;;
70433;SDS011;57876;47.792;12.960;2023-05-07T07:48:25;4.22;;;0.85;;
70433;SDS011;57876;47.792;12.960;2023-05-07T07:50:50;3.83;;;0.90;;
70433;SDS011;57876;47.792;12.960;2023-05-07T07:53:17;3.88;;;0.80;;
70433;SDS011;57876;47.792;12.960;2023-05-07T07:55:42;3.42;;;0.77;;
70433;SDS011;57876;47.792;12.960;2023-05-07T07:58:07;3.47;;;0.77;;
70433;SDS011;57876;47.792;12.960;2023-05-07T08:00:31;4.20;;;1.00;;
70433;SDS011;57876;47.792;12.960;2023-05-07T08:02:55;4.53;;;0.73;;
70433;SDS011;57876;47.792;12.960;2023-05-07T08:05:20;4.13;;;0.90;;
70433;SDS011;57876;47.792;12.960;2023-05-07T08:07:45;3.70;;;0.90;;
70433;SDS011;57876;47.792;12.960;2023-05-07T08:10:10;3.60;;;0.80;;
70433;SDS011;57876;47.792;12.960;2023-05-07T08:12:35;3.83;;;0.90;;
70433;SDS011;57876;47.792;12.960;2023-05-07T08:14:59;4.30;;;0.83;;
70433;SDS011;57876;47.792;12.960;2023-05-07T08:17:24;3.30;;;0.70;;
70433;SDS011;57876;47.792;12.960;2023-05-07T08:19:48;4.53;;;0.87;;
70433;SDS011;57876;47.792;12.960;2023-05-07T08:22:13;5.03;;;1.00;;
70433;SDS011;57876;47.792;12.960;2023-05-07T08:24:37;3.58;;;0.82;;
70433;SDS011;57876;47.792;12.960;2023-05-07T08:27:02;3.97;;;0.90;;
70433;SDS011;57876;47.792;12.960;2023-05-07T08:29:26;4.03;;;1.00;;
70433;SDS011;57876;47.792;12.960;2023-05-07T08:31:51;3.80;;;0.90;;
70433;SDS011;57876;47.792;12.960;2023-05-07T08:34:15;3.70;;;0.90;;
70433;SDS011;57876;47.792;12.960;2023-05-07T08:36:40;3.67;;;0.83;;
70433;SDS011;57876;47.792;12.960;2023-05-07T08:39:05;4.60;;;0.90;;
70433;SDS011;57876;47.792;12.960;2023-05-07T08:41:30;4.18;;;0.80;;
70433;SDS011;57876;47.792;12.960;2023-05-07T08:43:55;3.50;;;0.80;;
70433;SDS011;57876;47.792;12.960;2023-05-07T08:46:23;4.40;;;0.90;;
70433;SDS011;57876;47.792;12.960;2023-05-07T08:48:51;3.80;;;0.90;;
70433;SDS011;57876;47.792;12.960;2023-05-07T08:51:17;4.10;;;1.00;;
70433;SDS011;57876;47.792;12.960;2023-05-07T08:53:43;3.67;;;0.88;;
70433;SDS011;57876;47.792;12.960;2023-05-07T08:56:12;4.00;;;1.00;;
70433;SDS011;57876;47.792;12.960;2023-05-07T08:58:39;3.92;;;0.90;;
70433;SDS011;57876;47.792;12.960;2023-05-07T09:01:05;3.40;;;0.83;;
70433;SDS011;57876;47.792;12.960;2023-05-07T09:03:31;4.00;;;1.00;;
70433;SDS011;57876;47.792;12.960;2023-05-07T09:05:56;3.87;;;1.00;;
70433;SDS011;57876;47.792;12.960;2023-05-07T09:08:23;3.70;;;0.80;;
70433;SDS011;57876;47.792;12.960;2023-05-07T09:10:51;4.00;;;0.90;;
70433;SDS011;57876;47.792;12.960;2023-05-07T09:13:17;4.32;;;1.00;;
70433;SDS011;57876;47.792;12.960;2023-05-07T09:15:42;3.57;;;0.83;;
70433;SDS011;57876;47.792;12.960;2023-05-07T09:18:06;4.17;;;0.90;;
70433;SDS011;57876;47.792;12.960;2023-05-07T09:20:32;3.90;;;0.90;;
70433;SDS011;57876;47.792;12.960;2023-05-07T09:22:56;3.80;;;0.93;;
70433;SDS011;57876;47.792;12.960;2023-05-07T09:25:27;4.43;;;0.80;;
70433;SDS011;57876;47.792;12.960;2023-05-07T09:27:56;4.90;;;1.20;;
70433;SDS011;57876;47.792;12.960;2023-05-07T09:30:20;4.20;;;0.90;;
70433;SDS011;57876;47.792;12.960;2023-05-07T09:32:45;4.70;;;1.00;;
70433;SDS011;57876;47.792;12.960;2023-05-07T09:35:18;4.13;;;1.07;;
70433;SDS011;57876;47.792;12.960;2023-05-07T09:37:45;4.28;;;1.00;;
70433;SDS011;57876;47.792;12.960;2023-05-07T09:40:19;4.57;;;1.10;;
70433;SDS011;57876;47.792;12.960;2023-05-07T09:42:46;4.70;;;1.10;;
70433;SDS011;57876;47.792;12.960;2023-05-07T09:45:11;4.53;;;1.00;;
70433;SDS011;57876;47.792;12.960;2023-05-07T09:47:35;6.80;;;1.10;;
70433;SDS011;57876;47.792;12.960;2023-05-07T09:50:04;6.03;;;0.90;;
70433;SDS011;57876;47.792;12.960;2023-05-07T09:52:31;3.67;;;0.90;;
70433;SDS011;57876;47.792;12.960;2023-05-07T09:54:59;5.10;;;1.00;;
70433;SDS011;57876;47.792;12.960;2023-05-07T09:57:24;7.00;;;1.00;;
70433;SDS011;57876;47.792;12.960;2023-05-07T09:59:50;5.28;;;1.20;;
70433;SDS011;57876;47.792;12.960;2023-05-07T10:02:16;4.30;;;1.00;;
70433;SDS011;57876;47.792;12.960;2023-05-07T10:04:43;4.10;;;1.10;;
70433;SDS011;57876;47.792;12.960;2023-05-07T10:07:08;5.13;;;1.07;;
70433;SDS011;57876;47.792;12.960;2023-05-07T10:09:33;4.90;;;1.10;;
70433;SDS011;57876;47.792;12.960;2023-05-07T10:12:02;3.90;;;1.13;;
70433;SDS011;57876;47.792;12.960;2023-05-07T10:14:27;4.30;;;1.03;;
70433;SDS011;57876;47.792;12.960;2023-05-07T10:16:53;5.07;;;1.10;;
70433;SDS011;57876;47.792;12.960;2023-05-07T10:19:17;6.22;;;1.15;;
70433;SDS011;57876;47.792;12.960;2023-05-07T10:21:48;7.63;;;0.90;;
70433;SDS011;57876;47.792;12.960;2023-05-07T10:24:25;6.93;;;1.20;;
70433;SDS011;57876;47.792;12.960;2023-05-07T10:26:51;4.85;;;0.93;;
70433;SDS011;57876;47.792;12.960;2023-05-07T10:34:49;11.80;;;1.20;;
70433;SDS011;57876;47.792;12.960;2023-05-07T10:37:17;4.05;;;1.00;;
70433;SDS011;57876;47.792;12.960;2023-05-07T10:39:42;6.63;;;1.25;;
70433;SDS011;57876;47.792;12.960;2023-05-07T10:42:10;5.17;;;0.97;;
70433;SDS011;57876;47.792;12.960;2023-05-07T10:44:35;4.65;;;0.90;;
70433;SDS011;57876;47.792;12.960;2023-05-07T10:47:08;5.05;;;1.20;;
70433;SDS011;57876;47.792;12.960;2023-05-07T10:49:37;4.10;;;0.90;;
70433;SDS011;57876;47.792;12.960;2023-05-07T10:52:17;6.35;;;1.10;;
70433;SDS011;57876;47.792;12.960;2023-05-07T10:54:43;11.25;;;1.10;;
70433;SDS011;57876;47.792;12.960;2023-05-07T10:59:57;5.15;;;1.10;;
70433;SDS011;57876;47.792;12.960;2023-05-07T11:02:21;5.13;;;1.10;;
70433;SDS011;57876;47.792;12.960;2023-05-07T11:04:46;4.37;;;1.00;;
70433;SDS011;57876;47.792;12.960;2023-05-07T11:07:43;4.75;;;1.00;;
70433;SDS011;57876;47.792;12.960;2023-05-07T11:10:19;5.88;;;1.17;;
70433;SDS011;57876;47.792;12.960;2023-05-07T11:15:11;4.57;;;1.30;;
70433;SDS011;57876;47.792;12.960;2023-05-07T11:17:58;4.40;;;1.10;;
70433;SDS011;57876;47.792;12.960;2023-05-07T11:23:12;4.43;;;0.90;;
70433;SDS011;57876;47.792;12.960;2023-05-07T11:25:59;4.57;;;1.10;;
70433;SDS011;57876;47.792;12.960;2023-05-07T11:28:24;4.60;;;1.20;;
70433;SDS011;57876;47.792;12.960;2023-05-07T11:30:50;4.20;;;1.00;;
70433;SDS011;57876;47.792;12.960;2023-05-07T11:33:16;3.90;;;1.00;;
70433;SDS011;57876;47.792;12.960;2023-05-07T11:35:42;4.05;;;1.17;;
70433;SDS011;57876;47.792;12.960;2023-05-07T11:38:06;5.47;;;1.20;;
70433;SDS011;57876;47.792;12.960;2023-05-07T11:40:31;4.10;;;1.08;;
70433;SDS011;57876;47.792;12.960;2023-05-07T11:42:55;4.57;;;1.10;;
70433;SDS011;57876;47.792;12.960;2023-05-07T11:45:23;4.60;;;1.10;;
70433;SDS011;57876;47.792;12.960;2023-05-07T11:47:51;4.35;;;1.13;;
70433;SDS011;57876;47.792;12.960;2023-05-07T11:50:15;4.50;;;1.10;;
70433;SDS011;57876;47.792;12.960;2023-05-07T11:52:39;4.93;;;1.20;;
70433;SDS011;57876;47.792;12.960;2023-05-07T11:55:04;4.40;;;1.10;;
70433;SDS011;57876;47.792;12.960;2023-05-07T11:57:29;4.72;;;1.20;;
70433;SDS011;57876;47.792;12.960;2023-05-07T11:59:57;4.17;;;1.10;;
70433;SDS011;57876;47.792;12.960;2023-05-07T12:02:23;4.60;;;1.30;;
70433;SDS011;57876;47.792;12.960;2023-05-07T12:04:52;4.57;;;1.20;;
70433;SDS011;57876;47.792;12.960;2023-05-07T12:07:17;4.35;;;1.33;;
70433;SDS011;57876;47.792;12.960;2023-05-07T12:09:42;4.40;;;1.40;;
70433;SDS011;57876;47.792;12.960;2023-05-07T12:12:07;4.60;;;1.17;;
70433;SDS011;57876;47.792;12.960;2023-05-07T12:14:31;5.38;;;1.20;;
70433;SDS011;57876;47.792;12.960;2023-05-07T12:16:56;4.83;;;1.20;;
70433;SDS011;57876;47.792;12.960;2023-05-07T12:19:22;5.50;;;1.20;;
70433;SDS011;57876;47.792;12.960;2023-05-07T12:21:47;4.57;;;1.10;;
70433;SDS011;57876;47.792;12.960;2023-05-07T12:24:12;4.80;;;1.10;;
70433;SDS011;57876;47.792;12.960;2023-05-07T12:26:38;4.88;;;1.10;;
70433;SDS011;57876;47.792;12.960;2023-05-07T12:29:04;4.75;;;1.20;;
70433;SDS011;57876;47.792;12.960;2023-05-07T12:31:29;4.22;;;1.17;;
70433;SDS011;57876;47.792;12.960;2023-05-07T12:33:54;3.93;;;0.90;;
70433;SDS011;57876;47.792;12.960;2023-05-07T12:36:18;4.33;;;1.20;;
70433;SDS011;57876;47.792;12.960;2023-05-07T12:38:45;4.20;;;1.10;;
70433;SDS011;57876;47.792;12.960;2023-05-07T12:41:09;4.73;;;1.13;;
70433;SDS011;57876;47.792;12.960;2023-05-07T12:43:36;4.53;;;1.20;;
70433;SDS011;57876;47.792;12.960;2023-05-07T12:46:02;5.53;;;1.20;;
70433;SDS011;57876;47.792;12.960;2023-05-07T12:48:30;5.67;;;1.30;;
70433;SDS011;57876;47.792;12.960;2023-05-07T12:50:55;5.55;;;1.20;;
70433;SDS011;57876;47.792;12.960;2023-05-07T12:53:22;4.70;;;1.20;;
70433;SDS011;57876;47.792;12.960;2023-05-07T12:55:49;5.95;;;1.33;;
70433;SDS011;57876;47.792;12.960;2023-05-07T12:58:18;4.70;;;1.10;;
70433;SDS011;57876;47.792;12.960;2023-05-07T13:00:44;4.57;;;1.27;;
70433;SDS011;57876;47.792;12.960;2023-05-07T13:03:11;4.40;;;1.30;;
70433;SDS011;57876;47.792;12.960;2023-05-07T13:05:35;4.83;;;1.17;;
70433;SDS011;57876;47.792;12.960;2023-05-07T13:08:00;4.83;;;1.13;;
70433;SDS011;57876;47.792;12.960;2023-05-07T13:10:24;4.60;;;1.10;;
70433;SDS011;57876;47.792;12.960;2023-05-07T13:12:49;4.80;;;1.30;;
70433;SDS011;57876;47.792;12.960;2023-05-07T13:15:14;4.25;;;1.10;;
70433;SDS011;57876;47.792;12.960;2023-05-07T13:17:39;5.25;;;1.30;;
70433;SDS011;57876;47.792;12.960;2023-05-07T13:20:04;4.93;;;1.10;;
70433;SDS011;57876;47.792;12.960;2023-05-07T13:22:29;4.60;;;1.13;;
70433;SDS011;57876;47.792;12.960;2023-05-07T13:24:54;4.83;;;1.30;;
70433;SDS011;57876;47.792;12.960;2023-05-07T13:27:18;4.60;;;1.30;;
70433;SDS011;57876;47.792;12.960;2023-05-07T13:29:43;4.30;;;1.25;;
70433;SDS011;57876;47.792;12.960;2023-05-07T13:32:07;4.43;;;1.20;;
70433;SDS011;57876;47.792;12.960;2023-05-07T13:34:32;4.37;;;1.20;;
70433;SDS011;57876;47.792;12.960;2023-05-07T13:36:56;4.10;;;1.20;;
70433;SDS011;57876;47.792;12.960;2023-05-07T13:39:21;4.10;;;1.20;;
70433;SDS011;57876;47.792;12.960;2023-05-07T13:41:45;4.07;;;1.10;;
70433;SDS011;57876;47.792;12.960;2023-05-07T13:44:09;5.77;;;1.30;;
70433;SDS011;57876;47.792;12.960;2023-05-07T13:46:34;4.13;;;1.10;;
70433;SDS011;57876;47.792;12.960;2023-05-07T13:48:58;4.10;;;1.10;;
70433;SDS011;57876;47.792;12.960;2023-05-07T13:51:23;4.10;;;1.10;;
70433;SDS011;57876;47.792;12.960;2023-05-07T13:53:47;4.50;;;1.30;;
70433;SDS011;57876;47.792;12.960;2023-05-07T13:56:12;3.80;;;0.93;;
70433;SDS011;57876;47.792;12.960;2023-05-07T13:58:36;4.53;;;1.10;;
70433;SDS011;57876;47.792;12.960;2023-05-07T14:01:01;4.80;;;1.40;;
70433;SDS011;57876;47.792;12.960;2023-05-07T14:03:26;4.20;;;1.10;;
70433;SDS011;57876;47.792;12.960;2023-05-07T14:05:51;4.93;;;1.20;;
70433;SDS011;57876;47.792;12.960;2023-05-07T14:08:15;4.13;;;1.13;;
70433;SDS011;57876;47.792;12.960;2023-05-07T14:10:42;4.38;;;1.17;;
70433;SDS011;57876;47.792;12.960;2023-05-07T14:13:07;4.20;;;1.10;;
70433;SDS011;57876;47.792;12.960;2023-05-07T14:15:31;4.40;;;1.10;;
70433;SDS011;57876;47.792;12.960;2023-05-07T14:17:56;5.00;;;1.20;;
70433;SDS011;57876;47.792;12.960;2023-05-07T14:20:22;4.30;;;1.23;;
70433;SDS011;57876;47.792;12.960;2023-05-07T14:22:47;4.07;;;1.10;;
70433;SDS011;57876;47.792;12.960;2023-05-07T14:25:11;4.57;;;1.30;;
70433;SDS011;57876;47.792;12.960;2023-05-07T14:27:36;4.00;;;1.10;;
70433;SDS011;57876;47.792;12.960;2023-05-07T14:30:01;4.13;;;1.10;;
70433;SDS011;57876;47.792;12.960;2023-05-07T14:32:25;4.60;;;1.30;;
70433;SDS011;57876;47.792;12.960;2023-05-07T14:34:49;4.80;;;1.00;;